sensor_id;sensor_type;location;lat;lon;timestamp;P1;durP1;ratioP1;P2;durP2;ratioP2
63193;SDS011;49289;51.670;5.624;2023-06-24T00:00:09;11.10;;;9.10;;
63193;SDS011;49289;51.670;5.624;2023-06-24T00:01:58;11.00;;;8.80;;
63193;SDS011;49289;51.670;5.624;2023-06-24T00:03:46;12.70;;;9.40;;
63193;SDS011;49289;51.670;5.624;2023-06-24T00:05:35;14.70;;;9.60;;
63193;SDS011;49289;51.670;5.624;2023-06-24T00:07:23;12.40;;;9.50;;
63193;SDS011;49289;51.670;5.624;2023-06-24T00:09:11;13.40;;;9.30;;
63193;SDS011;49289;51.670;5.624;2023-06-24T00:10:58;13.60;;;9.20;;
63193;SDS011;49289;51.670;5.624;2023-06-24T00:12:45;10.70;;;9.20;;
63193;SDS011;49289;51.670;5.624;2023-06-24T00:14:33;12.70;;;9.90;;
63193;SDS011;49289;51.670;5.624;2023-06-24T00:16:22;11.60;;;9.20;;
63193;SDS011;49289;51.670;5.624;2023-06-24T00:18:10;12.40;;;9.60;;
63193;SDS011;49289;51.670;5.624;2023-06-24T00:19:57;13.40;;;9.60;;
63193;SDS011;49289;51.670;5.624;2023-06-24T00:21:44;10.90;;;9.10;;
63193;SDS011;49289;51.670;5.624;2023-06-24T00:23:33;11.40;;;9.40;;
63193;SDS011;49289;51.670;5.624;2023-06-24T00:25:21;12.10;;;9.50;;
63193;SDS011;49289;51.670;5.624;2023-06-24T00:27:10;12.70;;;9.00;;
63193;SDS011;49289;51.670;5.624;2023-06-24T00:28:58;12.10;;;9.40;;
63193;SDS011;49289;51.670;5.624;2023-06-24T00:30:45;13.00;;;9.50;;
63193;SDS011;49289;51.670;5.624;2023-06-24T00:32:34;12.10;;;9.30;;
63193;SDS011;49289;51.670;5.624;2023-06-24T00:34:22;13.40;;;9.60;;
63193;SDS011;49289;51.670;5.624;2023-06-24T00:36:09;12.60;;;9.80;;
63193;SDS011;49289;51.670;5.624;2023-06-24T00:37:57;12.90;;;10.20;;
63193;SDS011;49289;51.670;5.624;2023-06-24T00:39:46;16.90;;;10.80;;
63193;SDS011;49289;51.670;5.624;2023-06-24T00:41:34;12.90;;;10.30;;
63193;SDS011;49289;51.670;5.624;2023-06-24T00:43:22;13.90;;;10.40;;
63193;SDS011;49289;51.670;5.624;2023-06-24T00:45:10;14.70;;;11.40;;
63193;SDS011;49289;51.670;5.624;2023-06-24T00:46:58;12.80;;;10.60;;
63193;SDS011;49289;51.670;5.624;2023-06-24T00:48:46;14.50;;;12.00;;
63193;SDS011;49289;51.670;5.624;2023-06-24T00:50:33;18.50;;;12.20;;
63193;SDS011;49289;51.670;5.624;2023-06-24T00:52:20;17.20;;;11.90;;
63193;SDS011;49289;51.670;5.624;2023-06-24T00:54:09;16.40;;;12.00;;
63193;SDS011;49289;51.670;5.624;2023-06-24T00:55:56;16.00;;;11.80;;
63193;SDS011;49289;51.670;5.624;2023-06-24T00:57:44;14.90;;;11.90;;
63193;SDS011;49289;51.670;5.624;2023-06-24T00:59:30;16.30;;;11.30;;
63193;SDS011;49289;51.670;5.624;2023-06-24T01:01:17;14.60;;;11.90;;
63193;SDS011;49289;51.670;5.624;2023-06-24T01:03:05;15.80;;;12.10;;
63193;SDS011;49289;51.670;5.624;2023-06-24T01:04:54;16.10;;;12.60;;
63193;SDS011;49289;51.670;5.624;2023-06-24T01:06:42;15.00;;;11.90;;
63193;SDS011;49289;51.670;5.624;2023-06-24T01:08:30;14.20;;;12.10;;
63193;SDS011;49289;51.670;5.624;2023-06-24T01:10:17;17.20;;;12.00;;
63193;SDS011;49289;51.670;5.624;2023-06-24T01:12:04;17.20;;;12.10;;
63193;SDS011;49289;51.670;5.624;2023-06-24T01:13:52;15.50;;;12.00;;
63193;SDS011;49289;51.670;5.624;2023-06-24T01:15:39;14.40;;;11.50;;
63193;SDS011;49289;51.670;5.624;2023-06-24T01:17:28;15.90;;;11.80;;
63193;SDS011;49289;51.670;5.624;2023-06-24T01:19:17;19.40;;;13.00;;
63193;SDS011;49289;51.670;5.624;2023-06-24T01:21:09;16.60;;;12.40;;
63193;SDS011;49289;51.670;5.624;2023-06-24T01:25:17;16.70;;;12.70;;
63193;SDS011;49289;51.670;5.624;2023-06-24T01:27:24;17.10;;;12.80;;
63193;SDS011;49289;51.670;5.624;2023-06-24T01:29:32;16.40;;;12.80;;
63193;SDS011;49289;51.670;5.624;2023-06-24T01:31:27;14.50;;;11.90;;
63193;SDS011;49289;51.670;5.624;2023-06-24T01:33:18;16.70;;;12.60;;
63193;SDS011;49289;51.670;5.624;2023-06-24T01:35:05;16.50;;;12.50;;
63193;SDS011;49289;51.670;5.624;2023-06-24T01:36:52;16.20;;;12.40;;
63193;SDS011;49289;51.670;5.624;2023-06-24T01:38:42;17.70;;;13.30;;
63193;SDS011;49289;51.670;5.624;2023-06-24T01:40:30;19.00;;;13.00;;
63193;SDS011;49289;51.670;5.624;2023-06-24T01:42:17;17.50;;;12.80;;
63193;SDS011;49289;51.670;5.624;2023-06-24T01:44:05;17.00;;;12.30;;
63193;SDS011;49289;51.670;5.624;2023-06-24T01:45:53;16.30;;;12.40;;
63193;SDS011;49289;51.670;5.624;2023-06-24T01:47:42;17.60;;;13.30;;
63193;SDS011;49289;51.670;5.624;2023-06-24T01:49:28;17.00;;;12.90;;
63193;SDS011;49289;51.670;5.624;2023-06-24T01:51:17;15.70;;;12.50;;
63193;SDS011;49289;51.670;5.624;2023-06-24T01:53:03;17.40;;;12.50;;
63193;SDS011;49289;51.670;5.624;2023-06-24T01:54:49;16.60;;;12.50;;
63193;SDS011;49289;51.670;5.624;2023-06-24T01:56:38;17.40;;;12.70;;
63193;SDS011;49289;51.670;5.624;2023-06-24T01:58:26;16.20;;;13.00;;
63193;SDS011;49289;51.670;5.624;2023-06-24T02:00:14;15.10;;;11.90;;
63193;SDS011;49289;51.670;5.624;2023-06-24T02:02:01;16.80;;;13.60;;
63193;SDS011;49289;51.670;5.624;2023-06-24T02:03:49;16.90;;;12.40;;
63193;SDS011;49289;51.670;5.624;2023-06-24T02:05:37;16.60;;;13.00;;
63193;SDS011;49289;51.670;5.624;2023-06-24T02:07:26;15.30;;;12.20;;
63193;SDS011;49289;51.670;5.624;2023-06-24T02:09:13;16.40;;;13.00;;
63193;SDS011;49289;51.670;5.624;2023-06-24T02:11:00;15.60;;;12.30;;
63193;SDS011;49289;51.670;5.624;2023-06-24T02:12:48;16.60;;;12.50;;
63193;SDS011;49289;51.670;5.624;2023-06-24T02:14:34;17.00;;;12.80;;
63193;SDS011;49289;51.670;5.624;2023-06-24T02:16:22;17.90;;;12.90;;
63193;SDS011;49289;51.670;5.624;2023-06-24T02:18:10;15.70;;;12.60;;
63193;SDS011;49289;51.670;5.624;2023-06-24T02:19:59;18.30;;;13.40;;
63193;SDS011;49289;51.670;5.624;2023-06-24T02:21:47;16.00;;;12.70;;
63193;SDS011;49289;51.670;5.624;2023-06-24T02:23:35;17.30;;;12.80;;
63193;SDS011;49289;51.670;5.624;2023-06-24T02:25:24;19.40;;;12.40;;
63193;SDS011;49289;51.670;5.624;2023-06-24T02:27:11;15.80;;;12.80;;
63193;SDS011;49289;51.670;5.624;2023-06-24T02:28:58;16.00;;;12.50;;
63193;SDS011;49289;51.670;5.624;2023-06-24T02:30:46;14.60;;;11.70;;
63193;SDS011;49289;51.670;5.624;2023-06-24T02:32:35;15.90;;;12.20;;
63193;SDS011;49289;51.670;5.624;2023-06-24T02:34:22;15.60;;;12.60;;
63193;SDS011;49289;51.670;5.624;2023-06-24T02:36:09;17.00;;;11.90;;
63193;SDS011;49289;51.670;5.624;2023-06-24T02:37:58;15.60;;;12.70;;
63193;SDS011;49289;51.670;5.624;2023-06-24T02:39:46;15.50;;;12.40;;
63193;SDS011;49289;51.670;5.624;2023-06-24T02:41:33;18.10;;;12.80;;
63193;SDS011;49289;51.670;5.624;2023-06-24T02:43:20;17.20;;;13.00;;
63193;SDS011;49289;51.670;5.624;2023-06-24T02:45:07;16.00;;;12.20;;
63193;SDS011;49289;51.670;5.624;2023-06-24T02:46:55;15.40;;;11.90;;
63193;SDS011;49289;51.670;5.624;2023-06-24T02:48:42;15.20;;;12.30;;
63193;SDS011;49289;51.670;5.624;2023-06-24T02:50:29;15.40;;;12.50;;
63193;SDS011;49289;51.670;5.624;2023-06-24T02:52:16;15.80;;;12.20;;
63193;SDS011;49289;51.670;5.624;2023-06-24T02:54:05;17.20;;;12.40;;
63193;SDS011;49289;51.670;5.624;2023-06-24T02:55:52;15.80;;;12.70;;
63193;SDS011;49289;51.670;5.624;2023-06-24T02:57:41;15.90;;;12.40;;
63193;SDS011;49289;51.670;5.624;2023-06-24T02:59:29;15.70;;;12.70;;
63193;SDS011;49289;51.670;5.624;2023-06-24T03:01:16;16.80;;;12.00;;
63193;SDS011;49289;51.670;5.624;2023-06-24T03:03:03;15.00;;;11.70;;
63193;SDS011;49289;51.670;5.624;2023-06-24T03:04:50;16.10;;;12.40;;
63193;SDS011;49289;51.670;5.624;2023-06-24T03:06:37;14.20;;;11.70;;
63193;SDS011;49289;51.670;5.624;2023-06-24T03:08:24;14.40;;;12.10;;
63193;SDS011;49289;51.670;5.624;2023-06-24T03:10:13;15.90;;;11.70;;
63193;SDS011;49289;51.670;5.624;2023-06-24T03:12:00;15.70;;;12.00;;
63193;SDS011;49289;51.670;5.624;2023-06-24T03:13:48;14.50;;;11.60;;
63193;SDS011;49289;51.670;5.624;2023-06-24T03:15:36;14.30;;;11.20;;
63193;SDS011;49289;51.670;5.624;2023-06-24T03:17:25;15.30;;;12.10;;
63193;SDS011;49289;51.670;5.624;2023-06-24T03:19:13;15.20;;;12.00;;
63193;SDS011;49289;51.670;5.624;2023-06-24T03:21:01;14.60;;;11.80;;
63193;SDS011;49289;51.670;5.624;2023-06-24T03:22:48;16.30;;;11.90;;
63193;SDS011;49289;51.670;5.624;2023-06-24T03:24:35;14.10;;;11.50;;
63193;SDS011;49289;51.670;5.624;2023-06-24T03:26:22;16.50;;;11.90;;
63193;SDS011;49289;51.670;5.624;2023-06-24T03:28:09;14.40;;;11.10;;
63193;SDS011;49289;51.670;5.624;2023-06-24T03:29:57;16.60;;;11.60;;
63193;SDS011;49289;51.670;5.624;2023-06-24T03:31:45;17.20;;;11.60;;
63193;SDS011;49289;51.670;5.624;2023-06-24T03:33:34;15.40;;;12.00;;
63193;SDS011;49289;51.670;5.624;2023-06-24T03:35:22;13.80;;;10.60;;
63193;SDS011;49289;51.670;5.624;2023-06-24T03:37:09;15.90;;;11.70;;
63193;SDS011;49289;51.670;5.624;2023-06-24T03:38:57;14.40;;;10.90;;
63193;SDS011;49289;51.670;5.624;2023-06-24T03:40:46;15.60;;;11.10;;
63193;SDS011;49289;51.670;5.624;2023-06-24T03:42:34;15.20;;;10.90;;
63193;SDS011;49289;51.670;5.624;2023-06-24T03:44:21;17.10;;;11.40;;
63193;SDS011;49289;51.670;5.624;2023-06-24T03:46:08;15.10;;;11.10;;
63193;SDS011;49289;51.670;5.624;2023-06-24T03:47:55;18.80;;;11.40;;
63193;SDS011;49289;51.670;5.624;2023-06-24T03:49:42;15.40;;;11.30;;
63193;SDS011;49289;51.670;5.624;2023-06-24T03:51:30;14.00;;;11.00;;
63193;SDS011;49289;51.670;5.624;2023-06-24T03:53:18;15.30;;;11.30;;
63193;SDS011;49289;51.670;5.624;2023-06-24T03:55:07;14.60;;;11.10;;
63193;SDS011;49289;51.670;5.624;2023-06-24T03:56:54;13.90;;;10.60;;
63193;SDS011;49289;51.670;5.624;2023-06-24T03:58:41;14.90;;;11.60;;
63193;SDS011;49289;51.670;5.624;2023-06-24T04:00:28;14.70;;;10.60;;
63193;SDS011;49289;51.670;5.624;2023-06-24T04:02:16;15.50;;;10.70;;
63193;SDS011;49289;51.670;5.624;2023-06-24T04:04:04;13.10;;;10.80;;
63193;SDS011;49289;51.670;5.624;2023-06-24T04:05:52;14.00;;;10.50;;
63193;SDS011;49289;51.670;5.624;2023-06-24T04:07:39;13.20;;;10.20;;
63193;SDS011;49289;51.670;5.624;2023-06-24T04:09:26;14.40;;;11.00;;
63193;SDS011;49289;51.670;5.624;2023-06-24T04:11:14;14.20;;;10.80;;
63193;SDS011;49289;51.670;5.624;2023-06-24T04:13:01;13.20;;;10.60;;
63193;SDS011;49289;51.670;5.624;2023-06-24T04:14:50;14.60;;;10.80;;
63193;SDS011;49289;51.670;5.624;2023-06-24T04:16:38;13.70;;;10.60;;
63193;SDS011;49289;51.670;5.624;2023-06-24T04:18:26;13.10;;;10.60;;
63193;SDS011;49289;51.670;5.624;2023-06-24T04:20:14;14.60;;;10.80;;
63193;SDS011;49289;51.670;5.624;2023-06-24T04:22:01;14.40;;;11.10;;
63193;SDS011;49289;51.670;5.624;2023-06-24T04:23:50;14.10;;;11.10;;
63193;SDS011;49289;51.670;5.624;2023-06-24T04:25:38;14.60;;;11.40;;
63193;SDS011;49289;51.670;5.624;2023-06-24T04:27:25;17.10;;;11.30;;
63193;SDS011;49289;51.670;5.624;2023-06-24T04:29:12;14.90;;;11.10;;
63193;SDS011;49289;51.670;5.624;2023-06-24T04:30:59;13.10;;;10.40;;
63193;SDS011;49289;51.670;5.624;2023-06-24T04:32:47;14.20;;;11.10;;
63193;SDS011;49289;51.670;5.624;2023-06-24T04:34:36;15.60;;;10.70;;
63193;SDS011;49289;51.670;5.624;2023-06-24T04:36:24;14.90;;;11.10;;
63193;SDS011;49289;51.670;5.624;2023-06-24T04:38:12;14.10;;;10.80;;
63193;SDS011;49289;51.670;5.624;2023-06-24T04:40:00;14.20;;;10.90;;
63193;SDS011;49289;51.670;5.624;2023-06-24T04:41:47;12.70;;;9.70;;
63193;SDS011;49289;51.670;5.624;2023-06-24T04:43:34;14.10;;;10.50;;
63193;SDS011;49289;51.670;5.624;2023-06-24T04:45:21;14.20;;;10.40;;
63193;SDS011;49289;51.670;5.624;2023-06-24T04:47:10;13.10;;;10.30;;
63193;SDS011;49289;51.670;5.624;2023-06-24T04:48:58;12.90;;;10.00;;
63193;SDS011;49289;51.670;5.624;2023-06-24T04:50:47;12.80;;;10.10;;
63193;SDS011;49289;51.670;5.624;2023-06-24T04:52:35;14.00;;;9.90;;
63193;SDS011;49289;51.670;5.624;2023-06-24T04:54:23;11.80;;;9.40;;
63193;SDS011;49289;51.670;5.624;2023-06-24T04:56:11;11.60;;;9.50;;
63193;SDS011;49289;51.670;5.624;2023-06-24T04:57:58;11.70;;;9.00;;
63193;SDS011;49289;51.670;5.624;2023-06-24T04:59:45;10.10;;;8.00;;
63193;SDS011;49289;51.670;5.624;2023-06-24T05:01:32;10.40;;;8.10;;
63193;SDS011;49289;51.670;5.624;2023-06-24T05:03:19;10.60;;;7.70;;
63193;SDS011;49289;51.670;5.624;2023-06-24T05:05:07;10.50;;;7.30;;
63193;SDS011;49289;51.670;5.624;2023-06-24T05:06:56;9.40;;;7.30;;
63193;SDS011;49289;51.670;5.624;2023-06-24T05:08:44;9.00;;;6.90;;
63193;SDS011;49289;51.670;5.624;2023-06-24T05:10:31;9.10;;;6.90;;
63193;SDS011;49289;51.670;5.624;2023-06-24T05:12:19;11.20;;;7.10;;
63193;SDS011;49289;51.670;5.624;2023-06-24T05:14:07;9.50;;;6.60;;
63193;SDS011;49289;51.670;5.624;2023-06-24T05:15:56;10.80;;;7.40;;
63193;SDS011;49289;51.670;5.624;2023-06-24T05:17:44;11.00;;;6.80;;
63193;SDS011;49289;51.670;5.624;2023-06-24T05:19:32;10.70;;;7.00;;
63193;SDS011;49289;51.670;5.624;2023-06-24T05:21:19;10.10;;;6.90;;
63193;SDS011;49289;51.670;5.624;2023-06-24T05:23:06;9.80;;;7.30;;
63193;SDS011;49289;51.670;5.624;2023-06-24T05:24:53;10.20;;;7.20;;
63193;SDS011;49289;51.670;5.624;2023-06-24T05:26:40;10.10;;;7.10;;
63193;SDS011;49289;51.670;5.624;2023-06-24T05:28:27;9.80;;;7.50;;
63193;SDS011;49289;51.670;5.624;2023-06-24T05:30:16;10.30;;;8.00;;
63193;SDS011;49289;51.670;5.624;2023-06-24T05:32:03;11.90;;;7.70;;
63193;SDS011;49289;51.670;5.624;2023-06-24T05:33:52;11.30;;;7.80;;
63193;SDS011;49289;51.670;5.624;2023-06-24T05:35:40;11.10;;;8.60;;
63193;SDS011;49289;51.670;5.624;2023-06-24T05:37:26;10.60;;;8.50;;
63193;SDS011;49289;51.670;5.624;2023-06-24T05:39:15;11.90;;;8.30;;
63193;SDS011;49289;51.670;5.624;2023-06-24T05:41:03;12.10;;;8.20;;
63193;SDS011;49289;51.670;5.624;2023-06-24T05:42:50;12.60;;;8.50;;
63193;SDS011;49289;51.670;5.624;2023-06-24T05:44:37;11.30;;;8.40;;
63193;SDS011;49289;51.670;5.624;2023-06-24T05:46:24;13.40;;;9.20;;
63193;SDS011;49289;51.670;5.624;2023-06-24T05:48:11;12.70;;;8.70;;
63193;SDS011;49289;51.670;5.624;2023-06-24T05:49:59;12.70;;;9.20;;
63193;SDS011;49289;51.670;5.624;2023-06-24T05:51:48;15.30;;;9.20;;
63193;SDS011;49289;51.670;5.624;2023-06-24T05:53:36;15.20;;;9.70;;
63193;SDS011;49289;51.670;5.624;2023-06-24T05:55:24;18.40;;;9.90;;
63193;SDS011;49289;51.670;5.624;2023-06-24T05:57:11;15.30;;;9.90;;
63193;SDS011;49289;51.670;5.624;2023-06-24T05:58:58;14.40;;;9.40;;
63193;SDS011;49289;51.670;5.624;2023-06-24T06:00:46;14.80;;;9.90;;
63193;SDS011;49289;51.670;5.624;2023-06-24T06:02:35;14.10;;;9.80;;
63193;SDS011;49289;51.670;5.624;2023-06-24T06:04:23;14.60;;;9.50;;
63193;SDS011;49289;51.670;5.624;2023-06-24T06:06:11;13.40;;;9.30;;
63193;SDS011;49289;51.670;5.624;2023-06-24T06:07:58;13.60;;;9.70;;
63193;SDS011;49289;51.670;5.624;2023-06-24T06:09:45;12.70;;;8.70;;
63193;SDS011;49289;51.670;5.624;2023-06-24T06:11:32;13.60;;;10.00;;
63193;SDS011;49289;51.670;5.624;2023-06-24T06:13:19;13.40;;;9.50;;
63193;SDS011;49289;51.670;5.624;2023-06-24T06:15:06;11.80;;;8.60;;
63193;SDS011;49289;51.670;5.624;2023-06-24T06:16:55;14.80;;;9.00;;
63193;SDS011;49289;51.670;5.624;2023-06-24T06:18:43;15.90;;;9.20;;
63193;SDS011;49289;51.670;5.624;2023-06-24T06:20:31;13.30;;;9.40;;
63193;SDS011;49289;51.670;5.624;2023-06-24T06:22:19;14.30;;;8.80;;
63193;SDS011;49289;51.670;5.624;2023-06-24T06:24:08;12.80;;;9.20;;
63193;SDS011;49289;51.670;5.624;2023-06-24T06:25:56;13.30;;;9.80;;
63193;SDS011;49289;51.670;5.624;2023-06-24T06:27:43;13.20;;;9.30;;
63193;SDS011;49289;51.670;5.624;2023-06-24T06:29:30;14.00;;;9.00;;
63193;SDS011;49289;51.670;5.624;2023-06-24T06:31:18;12.40;;;9.00;;
63193;SDS011;49289;51.670;5.624;2023-06-24T06:33:07;17.30;;;10.10;;
63193;SDS011;49289;51.670;5.624;2023-06-24T06:34:55;13.10;;;8.90;;
63193;SDS011;49289;51.670;5.624;2023-06-24T06:36:43;12.20;;;8.60;;
63193;SDS011;49289;51.670;5.624;2023-06-24T06:38:31;13.80;;;8.50;;
63193;SDS011;49289;51.670;5.624;2023-06-24T06:40:19;12.20;;;7.90;;
63193;SDS011;49289;51.670;5.624;2023-06-24T06:42:06;11.70;;;7.90;;
63193;SDS011;49289;51.670;5.624;2023-06-24T06:43:53;11.50;;;8.60;;
63193;SDS011;49289;51.670;5.624;2023-06-24T06:45:41;11.60;;;7.80;;
63193;SDS011;49289;51.670;5.624;2023-06-24T06:47:29;12.40;;;7.80;;
63193;SDS011;49289;51.670;5.624;2023-06-24T06:49:18;12.60;;;8.00;;
63193;SDS011;49289;51.670;5.624;2023-06-24T06:51:06;11.40;;;7.70;;
63193;SDS011;49289;51.670;5.624;2023-06-24T06:52:53;11.00;;;8.40;;
63193;SDS011;49289;51.670;5.624;2023-06-24T06:54:40;11.90;;;8.10;;
63193;SDS011;49289;51.670;5.624;2023-06-24T06:56:29;13.00;;;8.90;;
63193;SDS011;49289;51.670;5.624;2023-06-24T06:58:17;14.60;;;8.30;;
63193;SDS011;49289;51.670;5.624;2023-06-24T07:00:04;13.10;;;7.90;;
63193;SDS011;49289;51.670;5.624;2023-06-24T07:01:53;12.60;;;8.10;;
63193;SDS011;49289;51.670;5.624;2023-06-24T07:03:40;11.90;;;8.10;;
63193;SDS011;49289;51.670;5.624;2023-06-24T07:05:27;12.60;;;7.70;;
63193;SDS011;49289;51.670;5.624;2023-06-24T07:07:14;13.20;;;8.00;;
63193;SDS011;49289;51.670;5.624;2023-06-24T07:09:02;11.20;;;8.00;;
63193;SDS011;49289;51.670;5.624;2023-06-24T07:10:50;11.50;;;8.50;;
63193;SDS011;49289;51.670;5.624;2023-06-24T07:12:39;10.40;;;7.60;;
63193;SDS011;49289;51.670;5.624;2023-06-24T07:14:26;12.70;;;8.40;;
63193;SDS011;49289;51.670;5.624;2023-06-24T07:16:13;10.70;;;7.70;;
63193;SDS011;49289;51.670;5.624;2023-06-24T07:18:01;13.10;;;8.90;;
63193;SDS011;49289;51.670;5.624;2023-06-24T07:19:48;11.30;;;8.20;;
63193;SDS011;49289;51.670;5.624;2023-06-24T07:21:35;11.30;;;7.70;;
63193;SDS011;49289;51.670;5.624;2023-06-24T07:23:24;13.00;;;7.50;;
63193;SDS011;49289;51.670;5.624;2023-06-24T07:25:12;11.10;;;7.70;;
63193;SDS011;49289;51.670;5.624;2023-06-24T07:26:59;10.90;;;7.50;;
63193;SDS011;49289;51.670;5.624;2023-06-24T07:28:46;12.00;;;7.20;;
63193;SDS011;49289;51.670;5.624;2023-06-24T07:30:34;12.00;;;7.20;;
63193;SDS011;49289;51.670;5.624;2023-06-24T07:32:23;9.70;;;6.80;;
63193;SDS011;49289;51.670;5.624;2023-06-24T07:34:11;10.60;;;7.30;;
63193;SDS011;49289;51.670;5.624;2023-06-24T07:35:58;10.00;;;6.90;;
63193;SDS011;49289;51.670;5.624;2023-06-24T07:37:45;10.90;;;7.20;;
63193;SDS011;49289;51.670;5.624;2023-06-24T07:39:32;11.60;;;7.90;;
63193;SDS011;49289;51.670;5.624;2023-06-24T07:41:19;11.00;;;7.40;;
63193;SDS011;49289;51.670;5.624;2023-06-24T07:43:06;10.70;;;6.70;;
63193;SDS011;49289;51.670;5.624;2023-06-24T07:44:53;11.10;;;6.70;;
63193;SDS011;49289;51.670;5.624;2023-06-24T07:46:40;9.80;;;7.10;;
63193;SDS011;49289;51.670;5.624;2023-06-24T07:48:29;10.00;;;7.00;;
63193;SDS011;49289;51.670;5.624;2023-06-24T07:50:17;10.40;;;7.00;;
63193;SDS011;49289;51.670;5.624;2023-06-24T07:52:04;11.20;;;7.50;;
63193;SDS011;49289;51.670;5.624;2023-06-24T07:53:51;11.50;;;7.00;;
63193;SDS011;49289;51.670;5.624;2023-06-24T07:55:39;11.90;;;6.90;;
63193;SDS011;49289;51.670;5.624;2023-06-24T07:57:28;9.70;;;6.90;;
63193;SDS011;49289;51.670;5.624;2023-06-24T07:59:16;10.90;;;6.30;;
63193;SDS011;49289;51.670;5.624;2023-06-24T08:01:03;9.10;;;6.10;;
63193;SDS011;49289;51.670;5.624;2023-06-24T08:02:50;8.10;;;6.40;;
63193;SDS011;49289;51.670;5.624;2023-06-24T08:04:37;10.30;;;6.50;;
63193;SDS011;49289;51.670;5.624;2023-06-24T08:06:25;9.90;;;6.50;;
63193;SDS011;49289;51.670;5.624;2023-06-24T08:08:14;13.70;;;6.50;;
63193;SDS011;49289;51.670;5.624;2023-06-24T08:10:02;8.70;;;6.20;;
63193;SDS011;49289;51.670;5.624;2023-06-24T08:11:49;8.30;;;6.00;;
63193;SDS011;49289;51.670;5.624;2023-06-24T08:13:37;8.90;;;6.20;;
63193;SDS011;49289;51.670;5.624;2023-06-24T08:15:26;11.60;;;5.90;;
63193;SDS011;49289;51.670;5.624;2023-06-24T08:17:14;8.00;;;5.50;;
63193;SDS011;49289;51.670;5.624;2023-06-24T08:19:01;10.50;;;6.70;;
63193;SDS011;49289;51.670;5.624;2023-06-24T08:20:48;14.60;;;7.20;;
63193;SDS011;49289;51.670;5.624;2023-06-24T08:22:35;9.80;;;6.40;;
63193;SDS011;49289;51.670;5.624;2023-06-24T08:24:22;9.20;;;6.20;;
63193;SDS011;49289;51.670;5.624;2023-06-24T08:26:09;7.80;;;6.20;;
63193;SDS011;49289;51.670;5.624;2023-06-24T08:27:57;9.10;;;6.60;;
63193;SDS011;49289;51.670;5.624;2023-06-24T08:29:45;9.30;;;5.50;;
63193;SDS011;49289;51.670;5.624;2023-06-24T08:31:34;6.60;;;5.00;;
63193;SDS011;49289;51.670;5.624;2023-06-24T08:33:22;6.80;;;4.40;;
63193;SDS011;49289;51.670;5.624;2023-06-24T08:35:11;4.50;;;4.00;;
63193;SDS011;49289;51.670;5.624;2023-06-24T08:36:58;7.00;;;4.30;;
63193;SDS011;49289;51.670;5.624;2023-06-24T08:38:45;6.10;;;4.40;;
63193;SDS011;49289;51.670;5.624;2023-06-24T08:40:32;6.90;;;4.50;;
63193;SDS011;49289;51.670;5.624;2023-06-24T08:42:19;7.70;;;4.50;;
63193;SDS011;49289;51.670;5.624;2023-06-24T08:44:08;6.30;;;4.00;;
63193;SDS011;49289;51.670;5.624;2023-06-24T08:45:56;7.80;;;4.60;;
63193;SDS011;49289;51.670;5.624;2023-06-24T08:47:46;6.40;;;4.10;;
63193;SDS011;49289;51.670;5.624;2023-06-24T08:49:34;8.30;;;4.80;;
63193;SDS011;49289;51.670;5.624;2023-06-24T08:51:20;5.50;;;4.20;;
63193;SDS011;49289;51.670;5.624;2023-06-24T08:53:08;8.30;;;4.80;;
63193;SDS011;49289;51.670;5.624;2023-06-24T08:54:56;4.70;;;3.80;;
63193;SDS011;49289;51.670;5.624;2023-06-24T08:56:43;5.80;;;3.70;;
63193;SDS011;49289;51.670;5.624;2023-06-24T08:58:30;5.70;;;4.00;;
63193;SDS011;49289;51.670;5.624;2023-06-24T09:00:18;6.50;;;4.20;;
63193;SDS011;49289;51.670;5.624;2023-06-24T09:02:06;7.10;;;3.80;;
63193;SDS011;49289;51.670;5.624;2023-06-24T09:03:53;4.80;;;3.60;;
63193;SDS011;49289;51.670;5.624;2023-06-24T09:05:42;4.80;;;3.40;;
63193;SDS011;49289;51.670;5.624;2023-06-24T09:07:32;5.80;;;3.30;;
63193;SDS011;49289;51.670;5.624;2023-06-24T09:09:23;3.60;;;3.10;;
63193;SDS011;49289;51.670;5.624;2023-06-24T09:11:11;3.30;;;2.60;;
63193;SDS011;49289;51.670;5.624;2023-06-24T09:13:00;4.70;;;2.90;;
63193;SDS011;49289;51.670;5.624;2023-06-24T09:14:48;3.00;;;2.60;;
63193;SDS011;49289;51.670;5.624;2023-06-24T09:16:35;3.90;;;2.90;;
63193;SDS011;49289;51.670;5.624;2023-06-24T09:18:23;4.30;;;2.80;;
63193;SDS011;49289;51.670;5.624;2023-06-24T09:20:17;4.10;;;2.50;;
63193;SDS011;49289;51.670;5.624;2023-06-24T09:22:07;3.20;;;2.70;;
63193;SDS011;49289;51.670;5.624;2023-06-24T09:23:57;4.30;;;3.10;;
63193;SDS011;49289;51.670;5.624;2023-06-24T09:25:43;3.40;;;2.40;;
63193;SDS011;49289;51.670;5.624;2023-06-24T09:27:31;3.10;;;2.70;;
63193;SDS011;49289;51.670;5.624;2023-06-24T09:29:19;4.10;;;2.90;;
63193;SDS011;49289;51.670;5.624;2023-06-24T09:31:11;3.20;;;2.60;;
63193;SDS011;49289;51.670;5.624;2023-06-24T09:32:58;5.50;;;2.80;;
63193;SDS011;49289;51.670;5.624;2023-06-24T09:34:45;3.30;;;2.60;;
63193;SDS011;49289;51.670;5.624;2023-06-24T09:36:33;3.30;;;2.40;;
63193;SDS011;49289;51.670;5.624;2023-06-24T09:38:21;4.50;;;2.80;;
63193;SDS011;49289;51.670;5.624;2023-06-24T09:40:18;3.50;;;2.60;;
63193;SDS011;49289;51.670;5.624;2023-06-24T09:42:05;6.90;;;2.40;;
63193;SDS011;49289;51.670;5.624;2023-06-24T09:43:52;3.70;;;2.70;;
63193;SDS011;49289;51.670;5.624;2023-06-24T09:45:40;5.80;;;2.30;;
63193;SDS011;49289;51.670;5.624;2023-06-24T09:47:29;3.30;;;2.20;;
63193;SDS011;49289;51.670;5.624;2023-06-24T09:49:17;2.30;;;2.10;;
63193;SDS011;49289;51.670;5.624;2023-06-24T09:51:05;3.80;;;2.30;;
63193;SDS011;49289;51.670;5.624;2023-06-24T09:52:52;2.60;;;2.40;;
63193;SDS011;49289;51.670;5.624;2023-06-24T09:54:39;4.70;;;2.50;;
63193;SDS011;49289;51.670;5.624;2023-06-24T09:56:26;3.80;;;2.50;;
63193;SDS011;49289;51.670;5.624;2023-06-24T09:58:13;2.50;;;2.20;;
63193;SDS011;49289;51.670;5.624;2023-06-24T10:00:17;2.60;;;2.10;;
63193;SDS011;49289;51.670;5.624;2023-06-24T10:02:04;3.20;;;2.30;;
63193;SDS011;49289;51.670;5.624;2023-06-24T10:03:53;2.40;;;2.20;;
63193;SDS011;49289;51.670;5.624;2023-06-24T10:05:40;2.40;;;2.20;;
63193;SDS011;49289;51.670;5.624;2023-06-24T10:07:27;2.10;;;2.00;;
63193;SDS011;49289;51.670;5.624;2023-06-24T10:09:14;2.90;;;2.10;;
63193;SDS011;49289;51.670;5.624;2023-06-24T10:11:01;3.70;;;2.10;;
63193;SDS011;49289;51.670;5.624;2023-06-24T10:12:50;3.00;;;2.40;;
63193;SDS011;49289;51.670;5.624;2023-06-24T10:14:37;3.00;;;2.20;;
63193;SDS011;49289;51.670;5.624;2023-06-24T10:16:24;2.30;;;2.10;;
63193;SDS011;49289;51.670;5.624;2023-06-24T10:20:19;3.50;;;2.40;;
63193;SDS011;49289;51.670;5.624;2023-06-24T10:22:13;2.60;;;2.40;;
63193;SDS011;49289;51.670;5.624;2023-06-24T10:24:02;2.60;;;2.30;;
63193;SDS011;49289;51.670;5.624;2023-06-24T10:25:49;4.10;;;2.30;;
63193;SDS011;49289;51.670;5.624;2023-06-24T10:27:39;3.10;;;2.30;;
63193;SDS011;49289;51.670;5.624;2023-06-24T10:29:36;5.40;;;2.50;;
63193;SDS011;49289;51.670;5.624;2023-06-24T10:31:24;3.90;;;2.50;;
63193;SDS011;49289;51.670;5.624;2023-06-24T10:33:22;4.60;;;2.40;;
63193;SDS011;49289;51.670;5.624;2023-06-24T10:35:20;2.30;;;2.10;;
63193;SDS011;49289;51.670;5.624;2023-06-24T10:37:08;4.40;;;2.50;;
63193;SDS011;49289;51.670;5.624;2023-06-24T10:39:00;3.20;;;2.50;;
63193;SDS011;49289;51.670;5.624;2023-06-24T10:40:49;5.10;;;2.40;;
63193;SDS011;49289;51.670;5.624;2023-06-24T10:42:40;4.00;;;2.50;;
63193;SDS011;49289;51.670;5.624;2023-06-24T10:44:27;5.60;;;2.80;;